sensor_id;sensor_type;location;lat;lon;timestamp;pressure;altitude;pressure_sealevel;temperature;humidity
46836;BME280;32573;51.290;6.926;2023-05-23T00:01:13;100277.47;;;16.81;100.00
46836;BME280;32573;51.290;6.926;2023-05-23T00:04:35;100276.59;;;16.79;100.00
46836;BME280;32573;51.290;6.926;2023-05-23T00:10:53;100275.66;;;16.77;100.00
46836;BME280;32573;51.290;6.926;2023-05-23T00:13:34;100269.50;;;16.75;100.00
46836;BME280;32573;51.290;6.926;2023-05-23T00:16:28;100262.41;;;16.72;100.00
46836;BME280;32573;51.290;6.926;2023-05-23T00:19:05;100261.53;;;16.72;100.00
46836;BME280;32573;51.290;6.926;2023-05-23T00:21:49;100258.88;;;16.69;100.00
46836;BME280;32573;51.290;6.926;2023-05-23T00:24:21;100262.41;;;16.68;100.00
46836;BME280;32573;51.290;6.926;2023-05-23T00:26:54;100265.06;;;16.68;100.00
46836;BME280;32573;51.290;6.926;2023-05-23T00:29:27;100273.84;;;16.67;100.00
46836;BME280;32573;51.290;6.926;2023-05-23T00:32:01;100272.09;;;16.66;100.00
46836;BME280;32573;51.290;6.926;2023-05-23T00:34:35;100270.31;;;16.65;100.00
46836;BME280;32573;51.290;6.926;2023-05-23T00:37:06;100271.19;;;16.62;100.00
46836;BME280;32573;51.290;6.926;2023-05-23T00:39:35;100278.22;;;16.58;100.00
46836;BME280;32573;51.290;6.926;2023-05-23T00:42:09;100276.41;;;16.54;100.00
46836;BME280;32573;51.290;6.926;2023-05-23T00:44:39;100279.06;;;16.51;100.00
46836;BME280;32573;51.290;6.926;2023-05-23T00:47:13;100287.88;;;16.50;100.00
46836;BME280;32573;51.290;6.926;2023-05-23T00:52:51;100295.75;;;16.44;100.00
46836;BME280;32573;51.290;6.926;2023-05-23T00:55:24;100291.31;;;16.42;100.00
46836;BME280;32573;51.290;6.926;2023-05-23T00:57:56;100287.81;;;16.41;100.00
46836;BME280;32573;51.290;6.926;2023-05-23T01:00:27;100302.78;;;16.41;100.00
46836;BME280;32573;51.290;6.926;2023-05-23T01:03:02;100301.88;;;16.37;100.00
46836;BME280;32573;51.290;6.926;2023-05-23T01:05:34;100302.75;;;16.36;100.00
46836;BME280;32573;51.290;6.926;2023-05-23T01:08:13;100308.91;;;16.35;100.00
46836;BME280;32573;51.290;6.926;2023-05-23T01:10:45;100313.31;;;16.36;100.00
46836;BME280;32573;51.290;6.926;2023-05-23T01:13:30;100300.97;;;16.33;100.00
46836;BME280;32573;51.290;6.926;2023-05-23T01:16:10;100305.38;;;16.33;100.00
46836;BME280;32573;51.290;6.926;2023-05-23T01:18:48;100306.25;;;16.33;100.00
46836;BME280;32573;51.290;6.926;2023-05-23T01:21:22;100300.97;;;16.33;100.00
46836;BME280;32573;51.290;6.926;2023-05-23T01:24:16;100286.88;;;16.34;100.00
46836;BME280;32573;51.290;6.926;2023-05-23T01:27:10;100294.81;;;16.33;100.00
46836;BME280;32573;51.290;6.926;2023-05-23T01:29:55;100295.66;;;16.32;100.00
46836;BME280;32573;51.290;6.926;2023-05-23T01:32:28;100297.41;;;16.30;100.00
46836;BME280;32573;51.290;6.926;2023-05-23T01:34:59;100307.09;;;16.28;100.00
46836;BME280;32573;51.290;6.926;2023-05-23T01:37:28;100304.44;;;16.26;100.00
46836;BME280;32573;51.290;6.926;2023-05-23T01:40:11;100298.28;;;16.26;100.00
46836;BME280;32573;51.290;6.926;2023-05-23T01:42:45;100309.69;;;16.25;100.00
46836;BME280;32573;51.290;6.926;2023-05-23T01:45:21;100304.41;;;16.25;100.00
46836;BME280;32573;51.290;6.926;2023-05-23T01:47:55;100305.31;;;16.24;100.00
46836;BME280;32573;51.290;6.926;2023-05-23T01:50:33;100310.59;;;16.24;100.00
46836;BME280;32573;51.290;6.926;2023-05-23T01:53:05;100310.59;;;16.24;100.00
46836;BME280;32573;51.290;6.926;2023-05-23T01:55:36;100313.22;;;16.21;100.00
46836;BME280;32573;51.290;6.926;2023-05-23T01:58:19;100313.19;;;16.19;100.00
46836;BME280;32573;51.290;6.926;2023-05-23T02:00:55;100311.44;;;16.18;100.00
46836;BME280;32573;51.290;6.926;2023-05-23T02:03:26;100310.56;;;16.17;100.00
46836;BME280;32573;51.290;6.926;2023-05-23T02:06:00;100311.44;;;16.18;100.00
46836;BME280;32573;51.290;6.926;2023-05-23T02:08:36;100310.56;;;16.17;100.00
46836;BME280;32573;51.290;6.926;2023-05-23T02:11:07;100316.69;;;16.16;100.00
46836;BME280;32573;51.290;6.926;2023-05-23T02:13:42;100315.84;;;16.17;100.00
46836;BME280;32573;51.290;6.926;2023-05-23T02:16:16;100315.84;;;16.17;100.00
46836;BME280;32573;51.290;6.926;2023-05-23T02:18:47;100308.78;;;16.16;100.00
46836;BME280;32573;51.290;6.926;2023-05-23T02:21:26;100315.84;;;16.17;100.00
46836;BME280;32573;51.290;6.926;2023-05-23T02:24:01;100309.66;;;16.17;100.00
46836;BME280;32573;51.290;6.926;2023-05-23T02:26:40;100314.06;;;16.16;100.00
46836;BME280;32573;51.290;6.926;2023-05-23T02:29:15;100311.41;;;16.15;100.00
46836;BME280;32573;51.290;6.926;2023-05-23T02:31:50;100313.16;;;16.14;100.00
46836;BME280;32573;51.290;6.926;2023-05-23T02:34:27;100318.44;;;16.14;100.00
46836;BME280;32573;51.290;6.926;2023-05-23T02:37:07;100320.16;;;16.12;100.00
46836;BME280;32573;51.290;6.926;2023-05-23T02:39:38;100319.28;;;16.09;100.00
46836;BME280;32573;51.290;6.926;2023-05-23T02:42:12;100334.22;;;16.07;100.00
46836;BME280;32573;51.290;6.926;2023-05-23T02:44:43;100326.31;;;16.05;100.00
46836;BME280;32573;51.290;6.926;2023-05-23T02:47:20;100320.13;;;16.03;100.00
46836;BME280;32573;51.290;6.926;2023-05-23T02:49:53;100321.00;;;16.04;100.00
46836;BME280;32573;51.290;6.926;2023-05-23T02:52:26;100333.31;;;16.03;100.00
46836;BME280;32573;51.290;6.926;2023-05-23T02:54:56;100329.78;;;16.01;100.00
46836;BME280;32573;51.290;6.926;2023-05-23T02:57:27;100337.72;;;16.01;100.00
46836;BME280;32573;51.290;6.926;2023-05-23T02:59:58;100333.31;;;16.00;100.00
46836;BME280;32573;51.290;6.926;2023-05-23T03:02:29;100334.16;;;15.99;100.00
46836;BME280;32573;51.290;6.926;2023-05-23T03:04:58;100340.31;;;16.00;100.00
46836;BME280;32573;51.290;6.926;2023-05-23T03:07:28;100336.81;;;15.99;100.00
46836;BME280;32573;51.290;6.926;2023-05-23T03:10:00;100330.66;;;15.99;100.00
46836;BME280;32573;51.290;6.926;2023-05-23T03:12:31;100342.97;;;15.98;100.00
46836;BME280;32573;51.290;6.926;2023-05-23T03:15:05;100341.19;;;15.95;100.00
46836;BME280;32573;51.290;6.926;2023-05-23T03:17:42;100335.03;;;15.95;100.00
46836;BME280;32573;51.290;6.926;2023-05-23T03:20:16;100327.97;;;15.94;100.00
46836;BME280;32573;51.290;6.926;2023-05-23T03:22:45;100333.22;;;15.92;100.00
46836;BME280;32573;51.290;6.926;2023-05-23T03:25:14;100335.84;;;15.91;100.00
46836;BME280;32573;51.290;6.926;2023-05-23T03:27:43;100333.19;;;15.88;100.00
46836;BME280;32573;51.290;6.926;2023-05-23T03:30:12;100332.28;;;15.87;100.00
46836;BME280;32573;51.290;6.926;2023-05-23T03:32:43;100349.91;;;15.85;100.00
46836;BME280;32573;51.290;6.926;2023-05-23T03:35:13;100344.63;;;15.85;100.00
46836;BME280;32573;51.290;6.926;2023-05-23T03:37:42;100346.38;;;15.86;100.00
46836;BME280;32573;51.290;6.926;2023-05-23T03:40:11;100333.16;;;15.86;100.00
46836;BME280;32573;51.290;6.926;2023-05-23T03:42:47;100341.97;;;15.87;100.00
46836;BME280;32573;51.290;6.926;2023-05-23T03:45:17;100336.69;;;15.87;100.00
46836;BME280;32573;51.290;6.926;2023-05-23T03:47:48;100341.97;;;15.87;100.00
46836;BME280;32573;51.290;6.926;2023-05-23T03:50:19;100341.97;;;15.85;100.00
46836;BME280;32573;51.290;6.926;2023-05-23T03:52:50;100347.22;;;15.84;100.00
46836;BME280;32573;51.290;6.926;2023-05-23T03:55:24;100352.50;;;15.84;100.00
46836;BME280;32573;51.290;6.926;2023-05-23T03:57:57;100362.19;;;15.83;100.00
46836;BME280;32573;51.290;6.926;2023-05-23T04:00:30;100367.47;;;15.83;100.00
46836;BME280;32573;51.290;6.926;2023-05-23T04:03:07;100371.88;;;15.83;100.00
46836;BME280;32573;51.290;6.926;2023-05-23T04:05:39;100369.22;;;15.83;100.00
46836;BME280;32573;51.290;6.926;2023-05-23T04:08:10;100374.47;;;15.81;100.00
46836;BME280;32573;51.290;6.926;2023-05-23T04:10:42;100386.81;;;15.81;100.00
46836;BME280;32573;51.290;6.926;2023-05-23T04:13:11;100389.41;;;15.78;100.00
46836;BME280;32573;51.290;6.926;2023-05-23T04:15:42;100385.88;;;15.76;100.00
46836;BME280;32573;51.290;6.926;2023-05-23T04:18:14;100384.94;;;15.72;100.00
46836;BME280;32573;51.290;6.926;2023-05-23T04:20:45;100387.50;;;15.67;100.00
46836;BME280;32573;51.290;6.926;2023-05-23T04:23:15;100381.34;;;15.67;100.00
46836;BME280;32573;51.290;6.926;2023-05-23T04:25:49;100384.84;;;15.66;100.00
46836;BME280;32573;51.290;6.926;2023-05-23T04:28:25;100389.22;;;15.64;100.00
46836;BME280;32573;51.290;6.926;2023-05-23T04:30:55;100394.47;;;15.62;100.00
46836;BME280;32573;51.290;6.926;2023-05-23T04:33:30;100387.44;;;15.61;100.00
46836;BME280;32573;51.290;6.926;2023-05-23T04:36:03;100390.06;;;15.61;100.00
46836;BME280;32573;51.290;6.926;2023-05-23T04:38:39;100392.72;;;15.61;100.00
46836;BME280;32573;51.290;6.926;2023-05-23T04:41:10;100396.22;;;15.60;100.00
46836;BME280;32573;51.290;6.926;2023-05-23T04:43:58;100401.50;;;15.60;100.00
46836;BME280;32573;51.290;6.926;2023-05-23T04:46:38;100394.44;;;15.59;100.00
46836;BME280;32573;51.290;6.926;2023-05-23T04:49:24;100404.13;;;15.59;100.00
46836;BME280;32573;51.290;6.926;2023-05-23T04:51:56;100404.13;;;15.59;100.00
46836;BME280;32573;51.290;6.926;2023-05-23T04:54:40;100400.59;;;15.58;100.00
46836;BME280;32573;51.290;6.926;2023-05-23T04:57:20;100395.31;;;15.58;100.00
46836;BME280;32573;51.290;6.926;2023-05-23T04:59:50;100398.00;;;15.61;100.00
46836;BME280;32573;51.290;6.926;2023-05-23T05:02:22;100400.63;;;15.61;100.00
46836;BME280;32573;51.290;6.926;2023-05-23T05:04:53;100399.75;;;15.62;100.00
46836;BME280;32573;51.290;6.926;2023-05-23T05:07:26;100401.53;;;15.63;100.00
46836;BME280;32573;51.290;6.926;2023-05-23T05:10:00;100400.66;;;15.63;100.00
46836;BME280;32573;51.290;6.926;2023-05-23T05:12:33;100405.03;;;15.62;100.00
46836;BME280;32573;51.290;6.926;2023-05-23T05:15:06;100416.47;;;15.61;100.00
46836;BME280;32573;51.290;6.926;2023-05-23T05:17:37;100411.16;;;15.60;100.00
46836;BME280;32573;51.290;6.926;2023-05-23T05:20:13;100416.44;;;15.60;100.00
46836;BME280;32573;51.290;6.926;2023-05-23T05:22:45;100416.44;;;15.60;100.00
46836;BME280;32573;51.290;6.926;2023-05-23T05:25:19;100420.84;;;15.59;100.00
46836;BME280;32573;51.290;6.926;2023-05-23T05:27:49;100423.50;;;15.61;100.00
46836;BME280;32573;51.290;6.926;2023-05-23T05:30:21;100423.50;;;15.61;100.00
46836;BME280;32573;51.290;6.926;2023-05-23T05:32:58;100428.78;;;15.62;100.00
46836;BME280;32573;51.290;6.926;2023-05-23T05:35:39;100429.66;;;15.61;100.00
46836;BME280;32573;51.290;6.926;2023-05-23T05:38:15;100430.53;;;15.62;100.00
46836;BME280;32573;51.290;6.926;2023-05-23T05:40:46;100436.69;;;15.62;100.00
46836;BME280;32573;51.290;6.926;2023-05-23T05:43:20;100434.97;;;15.63;100.00
46836;BME280;32573;51.290;6.926;2023-05-23T05:45:51;100442.84;;;15.61;100.00
46836;BME280;32573;51.290;6.926;2023-05-23T05:48:20;100444.59;;;15.61;100.00
46836;BME280;32573;51.290;6.926;2023-05-23T05:50:56;100450.75;;;15.58;100.00
46836;BME280;32573;51.290;6.926;2023-05-23T05:53:30;100449.81;;;15.56;100.00
46836;BME280;32573;51.290;6.926;2023-05-23T05:56:01;100451.56;;;15.52;100.00
46836;BME280;32573;51.290;6.926;2023-05-23T05:58:32;100455.03;;;15.51;100.00
46836;BME280;32573;51.290;6.926;2023-05-23T06:01:05;100457.69;;;15.51;100.00
46836;BME280;32573;51.290;6.926;2023-05-23T06:03:38;100455.91;;;15.52;100.00
46836;BME280;32573;51.290;6.926;2023-05-23T06:06:13;100454.19;;;15.52;100.00
46836;BME280;32573;51.290;6.926;2023-05-23T06:08:44;100451.56;;;15.52;100.00
46836;BME280;32573;51.290;6.926;2023-05-23T06:11:18;100463.00;;;15.53;100.00
46836;BME280;32573;51.290;6.926;2023-05-23T06:13:49;100450.66;;;15.52;100.00
46836;BME280;32573;51.290;6.926;2023-05-23T06:16:19;100458.59;;;15.53;100.00
46836;BME280;32573;51.290;6.926;2023-05-23T06:18:50;100454.19;;;15.54;100.00
46836;BME280;32573;51.290;6.926;2023-05-23T06:21:24;100461.25;;;15.55;100.00
46836;BME280;32573;51.290;6.926;2023-05-23T06:23:55;100458.63;;;15.55;100.00
46836;BME280;32573;51.290;6.926;2023-05-23T06:26:28;100456.88;;;15.56;100.00
46836;BME280;32573;51.290;6.926;2023-05-23T06:28:59;100456.00;;;15.55;100.00
46836;BME280;32573;51.290;6.926;2023-05-23T06:31:31;100457.75;;;15.56;100.00
46836;BME280;32573;51.290;6.926;2023-05-23T06:34:02;100465.66;;;15.56;100.00
46836;BME280;32573;51.290;6.926;2023-05-23T06:36:35;100465.66;;;15.56;100.00
46836;BME280;32573;51.290;6.926;2023-05-23T06:39:05;100463.03;;;15.56;100.00
46836;BME280;32573;51.290;6.926;2023-05-23T06:41:38;100466.56;;;15.58;100.00
46836;BME280;32573;51.290;6.926;2023-05-23T06:44:10;100470.13;;;15.60;100.00
46836;BME280;32573;51.290;6.926;2023-05-23T06:46:45;100468.34;;;15.61;100.00
46836;BME280;32573;51.290;6.926;2023-05-23T06:49:16;100476.28;;;15.62;100.00
46836;BME280;32573;51.290;6.926;2023-05-23T06:51:49;100481.59;;;15.64;100.00
46836;BME280;32573;51.290;6.926;2023-05-23T06:54:22;100487.75;;;15.64;100.00
46836;BME280;32573;51.290;6.926;2023-05-23T06:56:54;100482.47;;;15.64;100.00
46836;BME280;32573;51.290;6.926;2023-05-23T06:59:26;100486.00;;;15.66;100.00
46836;BME280;32573;51.290;6.926;2023-05-23T07:01:56;100486.00;;;15.66;100.00
46836;BME280;32573;51.290;6.926;2023-05-23T07:04:26;100492.19;;;15.67;100.00
46836;BME280;32573;51.290;6.926;2023-05-23T07:07:05;100494.84;;;15.68;100.00
46836;BME280;32573;51.290;6.926;2023-05-23T07:09:35;100492.25;;;15.70;100.00
46836;BME280;32573;51.290;6.926;2023-05-23T07:12:13;100495.72;;;15.69;100.00
46836;BME280;32573;51.290;6.926;2023-05-23T07:14:52;100501.88;;;15.68;100.00
46836;BME280;32573;51.290;6.926;2023-05-23T07:17:25;100513.28;;;15.67;100.00
46836;BME280;32573;51.290;6.926;2023-05-23T07:19:57;100515.94;;;15.65;100.00
46836;BME280;32573;51.290;6.926;2023-05-23T07:22:33;100510.66;;;15.65;100.00
46836;BME280;32573;51.290;6.926;2023-05-23T07:25:05;100515.03;;;15.66;100.00
46836;BME280;32573;51.290;6.926;2023-05-23T07:27:37;100515.94;;;15.67;100.00
46836;BME280;32573;51.290;6.926;2023-05-23T07:30:12;100516.84;;;15.69;100.00
46836;BME280;32573;51.290;6.926;2023-05-23T07:32:47;100517.75;;;15.69;100.00
46836;BME280;32573;51.290;6.926;2023-05-23T07:35:22;100530.09;;;15.70;100.00
46836;BME280;32573;51.290;6.926;2023-05-23T07:37:57;100525.69;;;15.71;100.00
46836;BME280;32573;51.290;6.926;2023-05-23T07:40:29;100521.28;;;15.70;100.00
46836;BME280;32573;51.290;6.926;2023-05-23T07:43:03;100531.78;;;15.68;100.00
46836;BME280;32573;51.290;6.926;2023-05-23T07:45:33;100534.41;;;15.65;100.00
46836;BME280;32573;51.290;6.926;2023-05-23T07:48:05;100534.38;;;15.64;100.00
46836;BME280;32573;51.290;6.926;2023-05-23T07:50:42;100535.22;;;15.61;100.00
46836;BME280;32573;51.290;6.926;2023-05-23T07:53:19;100535.19;;;15.60;100.00
46836;BME280;32573;51.290;6.926;2023-05-23T07:55:52;100546.59;;;15.57;100.00
46836;BME280;32573;51.290;6.926;2023-05-23T07:58:24;100545.69;;;15.55;100.00
46836;BME280;32573;51.290;6.926;2023-05-23T08:00:54;100546.53;;;15.52;100.00
46836;BME280;32573;51.290;6.926;2023-05-23T08:03:51;100545.63;;;15.52;100.00
46836;BME280;32573;51.290;6.926;2023-05-23T08:06:28;100550.00;;;15.50;100.00
46836;BME280;32573;51.290;6.926;2023-05-23T08:09:06;100550.00;;;15.50;100.00
46836;BME280;32573;51.290;6.926;2023-05-23T08:11:43;100557.91;;;15.50;100.00
46836;BME280;32573;51.290;6.926;2023-05-23T08:14:16;100562.31;;;15.49;100.00
46836;BME280;32573;51.290;6.926;2023-05-23T08:17:18;100566.75;;;15.52;100.00
46836;BME280;32573;51.290;6.926;2023-05-23T08:19:52;100565.88;;;15.51;100.00
46836;BME280;32573;51.290;6.926;2023-05-23T08:22:24;100570.25;;;15.51;100.00
46836;BME280;32573;51.290;6.926;2023-05-23T08:24:56;100570.25;;;15.51;100.00
46836;BME280;32573;51.290;6.926;2023-05-23T08:27:32;100576.38;;;15.50;100.00
46836;BME280;32573;51.290;6.926;2023-05-23T08:30:11;100584.28;;;15.50;100.00
46836;BME280;32573;51.290;6.926;2023-05-23T08:32:41;100580.78;;;15.48;100.00
46836;BME280;32573;51.290;6.926;2023-05-23T08:35:12;100582.50;;;15.46;100.00
46836;BME280;32573;51.290;6.926;2023-05-23T08:37:42;100585.97;;;15.45;100.00
46836;BME280;32573;51.290;6.926;2023-05-23T08:40:20;100587.75;;;15.44;100.00
46836;BME280;32573;51.290;6.926;2023-05-23T08:43:00;100600.06;;;15.44;100.00
46836;BME280;32573;51.290;6.926;2023-05-23T08:45:31;100595.63;;;15.41;100.00
46836;BME280;32573;51.290;6.926;2023-05-23T08:48:07;100596.47;;;15.39;100.00
46836;BME280;32573;51.290;6.926;2023-05-23T08:50:45;100599.03;;;15.34;100.00
46836;BME280;32573;51.290;6.926;2023-05-23T08:53:20;100606.00;;;15.32;100.00
46836;BME280;32573;51.290;6.926;2023-05-23T08:56:01;100609.50;;;15.29;100.00
46836;BME280;32573;51.290;6.926;2023-05-23T08:58:42;100606.81;;;15.26;100.00
46836;BME280;32573;51.290;6.926;2023-05-23T09:01:13;100612.94;;;15.24;100.00
46836;BME280;32573;51.290;6.926;2023-05-23T09:03:46;100621.72;;;15.23;100.00
46836;BME280;32573;51.290;6.926;2023-05-23T09:06:36;100624.28;;;15.20;100.00
46836;BME280;32573;51.290;6.926;2023-05-23T09:09:06;100632.16;;;15.17;100.00
46836;BME280;32573;51.290;6.926;2023-05-23T09:11:39;100628.59;;;15.13;100.00
46836;BME280;32573;51.290;6.926;2023-05-23T09:14:15;100625.88;;;15.10;100.00
46836;BME280;32573;51.290;6.926;2023-05-23T09:16:46;100627.63;;;15.09;100.00
46836;BME280;32573;51.290;6.926;2023-05-23T09:19:23;100634.66;;;15.09;100.00
46836;BME280;32573;51.290;6.926;2023-05-23T09:22:01;100634.63;;;15.06;100.00
46836;BME280;32573;51.290;6.926;2023-05-23T09:24:38;100634.56;;;15.03;100.00
46836;BME280;32573;51.290;6.926;2023-05-23T09:27:13;100645.03;;;15.00;100.00
46836;BME280;32573;51.290;6.926;2023-05-23T09:29:43;100645.84;;;14.96;100.00
46836;BME280;32573;51.290;6.926;2023-05-23T09:32:15;100646.66;;;14.92;100.00
46836;BME280;32573;51.290;6.926;2023-05-23T09:34:55;100654.47;;;14.87;100.00
46836;BME280;32573;51.290;6.926;2023-05-23T09:37:33;100651.75;;;14.82;100.00
46836;BME280;32573;51.290;6.926;2023-05-23T09:40:07;100660.47;;;14.78;100.00
46836;BME280;32573;51.290;6.926;2023-05-23T09:42:50;100657.78;;;14.75;100.00
46836;BME280;32573;51.290;6.926;2023-05-23T09:45:20;100653.31;;;14.71;100.00
46836;BME280;32573;51.290;6.926;2023-05-23T09:48:01;100654.97;;;14.67;100.00
46836;BME280;32573;51.290;6.926;2023-05-23T09:50:33;100657.63;;;14.67;100.00
46836;BME280;32573;51.290;6.926;2023-05-23T09:53:06;100656.72;;;14.67;100.00
46836;BME280;32573;51.290;6.926;2023-05-23T09:55:36;100646.25;;;14.70;100.00
46836;BME280;32573;51.290;6.926;2023-05-23T09:58:12;100652.56;;;14.78;100.00
46836;BME280;32573;51.290;6.926;2023-05-23T10:00:48;100653.53;;;14.83;100.00
46836;BME280;32573;51.290;6.926;2023-05-23T10:03:23;100643.03;;;14.86;100.00
46836;BME280;32573;51.290;6.926;2023-05-23T10:06:00;100667.69;;;14.88;100.00
46836;BME280;32573;51.290;6.926;2023-05-23T10:08:42;100660.56;;;14.84;100.00
46836;BME280;32573;51.290;6.926;2023-05-23T10:14:21;100661.25;;;14.73;100.00
46836;BME280;32573;51.290;6.926;2023-05-23T10:16:58;100658.59;;;14.71;100.00
46836;BME280;32573;51.290;6.926;2023-05-23T10:19:41;100667.31;;;14.70;100.00
46836;BME280;32573;51.290;6.926;2023-05-23T10:22:13;100672.53;;;14.67;100.00
46836;BME280;32573;51.290;6.926;2023-05-23T10:24:44;100669.91;;;14.67;100.00
46836;BME280;32573;51.290;6.926;2023-05-23T10:27:14;100671.59;;;14.63;100.00
46836;BME280;32573;51.290;6.926;2023-05-23T10:29:47;100675.91;;;14.60;100.00
46836;BME280;32573;51.290;6.926;2023-05-23T10:32:19;100676.69;;;14.54;100.00
46836;BME280;32573;51.290;6.926;2023-05-23T10:34:55;100681.81;;;14.50;100.00
46836;BME280;32573;51.290;6.926;2023-05-23T10:37:37;100683.53;;;14.46;100.00
46836;BME280;32573;51.290;6.926;2023-05-23T10:40:23;100696.66;;;14.44;100.00
46836;BME280;32573;51.290;6.926;2023-05-23T10:43:02;100692.22;;;14.42;100.00
46836;BME280;32573;51.290;6.926;2023-05-23T10:45:44;100691.38;;;14.43;100.00
46836;BME280;32573;51.290;6.926;2023-05-23T10:48:22;100694.94;;;14.46;100.00
46836;BME280;32573;51.290;6.926;2023-05-23T10:51:03;100694.16;;;14.51;100.00
46836;BME280;32573;51.290;6.926;2023-05-23T10:53:35;100701.31;;;14.56;100.00
46836;BME280;32573;51.290;6.926;2023-05-23T10:56:18;100701.41;;;14.61;100.00
46836;BME280;32573;51.290;6.926;2023-05-23T10:58:51;100697.13;;;14.66;100.00
46836;BME280;32573;51.290;6.926;2023-05-23T11:01:28;100707.78;;;14.72;100.00
46836;BME280;32573;51.290;6.926;2023-05-23T11:04:04;100701.78;;;14.79;100.00
46836;BME280;32573;51.290;6.926;2023-05-23T11:06:47;100692.25;;;14.87;100.00
46836;BME280;32573;51.290;6.926;2023-05-23T11:09:19;100688.97;;;14.98;100.00
46836;BME280;32573;51.290;6.926;2023-05-23T11:12:03;100693.59;;;15.11;100.00
46836;BME280;32573;51.290;6.926;2023-05-23T11:14:53;100695.66;;;15.29;100.00
46836;BME280;32573;51.290;6.926;2023-05-23T11:17:31;100696.75;;;15.42;100.00
46836;BME280;32573;51.290;6.926;2023-05-23T11:20:05;100696.03;;;15.52;100.00
46836;BME280;32573;51.290;6.926;2023-05-23T11:22:38;100697.94;;;15.61;100.00
46836;BME280;32573;51.290;6.926;2023-05-23T11:25:09;100697.16;;;15.66;100.00
46836;BME280;32573;51.290;6.926;2023-05-23T11:27:40;100699.03;;;15.70;100.00
46836;BME280;32573;51.290;6.926;2023-05-23T11:30:14;100695.53;;;15.74;100.00
46836;BME280;32573;51.290;6.926;2023-05-23T11:32:56;100701.78;;;15.78;100.00
46836;BME280;32573;51.290;6.926;2023-05-23T11:35:30;100696.50;;;15.78;100.00
46836;BME280;32573;51.290;6.926;2023-05-23T11:38:04;100703.53;;;15.79;100.00
46836;BME280;32573;51.290;6.926;2023-05-23T11:40:36;100704.41;;;15.80;100.00
46836;BME280;32573;51.290;6.926;2023-05-23T11:43:10;100703.56;;;15.81;100.00
46836;BME280;32573;51.290;6.926;2023-05-23T11:45:43;100700.94;;;15.81;100.00
46836;BME280;32573;51.290;6.926;2023-05-23T11:48:26;100705.28;;;15.79;100.00
46836;BME280;32573;51.290;6.926;2023-05-23T11:51:01;100705.34;;;15.80;100.00
46836;BME280;32573;51.290;6.926;2023-05-23T11:53:32;100707.09;;;15.81;100.00
46836;BME280;32573;51.290;6.926;2023-05-23T11:56:02;100713.25;;;15.82;100.00
46836;BME280;32573;51.290;6.926;2023-05-23T11:58:39;100718.50;;;15.79;100.00
46836;BME280;32573;51.290;6.926;2023-05-23T12:01:15;100721.97;;;15.76;100.00
46836;BME280;32573;51.290;6.926;2023-05-23T12:03:49;100722.84;;;15.77;100.00
46836;BME280;32573;51.290;6.926;2023-05-23T12:06:23;100717.59;;;15.77;100.00
46836;BME280;32573;51.290;6.926;2023-05-23T12:08:59;100726.44;;;15.80;100.00
46836;BME280;32573;51.290;6.926;2023-05-23T12:11:31;100717.69;;;15.83;100.00
46836;BME280;32573;51.290;6.926;2023-05-23T12:14:05;100715.06;;;15.83;100.00
46836;BME280;32573;51.290;6.926;2023-05-23T12:16:37;100730.94;;;15.86;100.00
46836;BME280;32573;51.290;6.926;2023-05-23T12:19:11;100724.72;;;15.84;100.00
46836;BME280;32573;51.290;6.926;2023-05-23T12:21:41;100732.66;;;15.84;100.00
46836;BME280;32573;51.290;6.926;2023-05-23T12:24:15;100728.25;;;15.84;100.00
46836;BME280;32573;51.290;6.926;2023-05-23T12:26:49;100730.06;;;15.87;100.00
46836;BME280;32573;51.290;6.926;2023-05-23T12:29:20;100722.13;;;15.87;100.00
46836;BME280;32573;51.290;6.926;2023-05-23T12:31:50;100723.97;;;15.91;100.00
46836;BME280;32573;51.290;6.926;2023-05-23T12:34:22;100714.41;;;15.99;100.00
46836;BME280;32573;51.290;6.926;2023-05-23T12:36:54;100724.22;;;16.09;100.00
46836;BME280;32573;51.290;6.926;2023-05-23T12:39:44;100716.50;;;16.23;100.00
46836;BME280;32573;51.290;6.926;2023-05-23T12:42:12;100714.88;;;16.34;100.00
46836;BME280;32573;51.290;6.926;2023-05-23T12:44:41;100715.91;;;16.44;100.00
46836;BME280;32573;51.290;6.926;2023-05-23T12:47:11;100715.09;;;16.50;100.00
46836;BME280;32573;51.290;6.926;2023-05-23T12:49:42;100714.22;;;16.52;100.00
46836;BME280;32573;51.290;6.926;2023-05-23T12:52:13;100712.56;;;16.57;100.00
46836;BME280;32573;51.290;6.926;2023-05-23T12:54:41;100717.06;;;16.66;100.00
46836;BME280;32573;51.290;6.926;2023-05-23T12:57:10;100712.75;;;16.73;100.00
46836;BME280;32573;51.290;6.926;2023-05-23T12:59:38;100704.97;;;16.84;100.00
46836;BME280;32573;51.290;6.926;2023-05-23T13:02:07;100712.19;;;17.00;100.00
46836;BME280;32573;51.290;6.926;2023-05-23T13:04:36;100703.56;;;17.18;100.00
46836;BME280;32573;51.290;6.926;2023-05-23T13:07:06;100696.66;;;17.35;100.00
46836;BME280;32573;51.290;6.926;2023-05-23T13:09:34;100705.53;;;17.43;100.00
46836;BME280;32573;51.290;6.926;2023-05-23T13:12:04;100703.84;;;17.52;100.00
46836;BME280;32573;51.290;6.926;2023-05-23T13:14:32;100704.88;;;17.69;100.00
46836;BME280;32573;51.290;6.926;2023-05-23T13:17:01;100704.13;;;17.84;100.00
46836;BME280;32573;51.290;6.926;2023-05-23T13:19:30;100703.31;;;17.93;100.00
46836;BME280;32573;51.290;6.926;2023-05-23T13:21:59;100710.38;;;17.97;100.00
46836;BME280;32573;51.290;6.926;2023-05-23T13:24:28;100706.00;;;17.99;100.00
46836;BME280;32573;51.290;6.926;2023-05-23T13:26:57;100699.78;;;17.97;100.00